createdAt,value
2019-01-21T00:02:17.790Z,-1.80
2019-01-21T00:05:05.858Z,-1.90
2019-01-21T00:07:53.998Z,-1.90
2019-01-21T00:10:41.964Z,-1.90
2019-01-21T00:13:29.262Z,-2.00
2019-01-21T00:16:16.570Z,-2.00
2019-01-21T00:19:05.671Z,-2.00
2019-01-21T00:21:53.404Z,-2.10
2019-01-21T00:24:40.702Z,-2.20
2019-01-21T00:27:28.376Z,-2.20
2019-01-21T00:30:16.329Z,-2.30
2019-01-21T00:33:04.073Z,-2.30
2019-01-21T00:35:51.905Z,-2.30
2019-01-21T00:38:39.314Z,-2.40
2019-01-21T00:41:27.379Z,-2.40
2019-01-21T00:44:15.153Z,-2.50
2019-01-21T00:47:02.860Z,-2.50
2019-01-21T00:49:50.438Z,-2.60
2019-01-21T00:52:38.073Z,-2.70
2019-01-21T00:55:25.999Z,-2.70
2019-01-21T00:58:13.769Z,-2.80
2019-01-21T01:01:01.067Z,-2.90
2019-01-21T01:03:48.719Z,-2.90
2019-01-21T01:06:36.657Z,-2.90
2019-01-21T01:09:24.366Z,-3.00
2019-01-21T01:12:12.074Z,-3.10
2019-01-21T01:14:59.603Z,-3.10
2019-01-21T01:17:47.246Z,-3.20
2019-01-21T01:20:35.054Z,-3.30
2019-01-21T01:23:22.499Z,-3.30
2019-01-21T01:26:10.340Z,-3.40
2019-01-21T01:28:57.789Z,-3.50
2019-01-21T01:31:45.173Z,-3.50
2019-01-21T01:34:32.929Z,-3.60
2019-01-21T01:37:20.568Z,-3.60
2019-01-21T01:40:11.120Z,-3.70
2019-01-21T01:42:58.511Z,-3.70
2019-01-21T01:45:46.586Z,-3.80
2019-01-21T01:48:34.666Z,-3.80
2019-01-21T01:51:22.945Z,-3.90
2019-01-21T01:54:11.180Z,-3.90
2019-01-21T01:57:00.252Z,-4.00
2019-01-21T01:59:48.683Z,-4.00
2019-01-21T02:02:38.385Z,-4.10
2019-01-21T02:05:26.535Z,-4.10
2019-01-21T02:08:14.702Z,-4.20
2019-01-21T02:11:03.149Z,-4.30
2019-01-21T02:13:50.946Z,-4.30
2019-01-21T02:16:38.572Z,-4.30
2019-01-21T02:19:29.944Z,-4.30
2019-01-21T02:22:25.044Z,-4.40
2019-01-21T02:25:19.008Z,-4.40
2019-01-21T02:29:03.663Z,-4.50
2019-01-21T02:32:30.882Z,-4.50
2019-01-21T02:35:33.053Z,-4.60
2019-01-21T02:38:50.278Z,-4.70
2019-01-21T02:41:50.556Z,-4.70
2019-01-21T02:45:00.360Z,-4.80
2019-01-21T02:48:00.132Z,-4.80
2019-01-21T02:51:43.185Z,-4.90
2019-01-21T02:54:44.439Z,-5.00
2019-01-21T02:57:50.152Z,-5.00
2019-01-21T03:00:47.834Z,-5.10
2019-01-21T03:04:03.575Z,-5.10
2019-01-21T03:07:02.022Z,-5.10
2019-01-21T03:10:23.798Z,-5.20
2019-01-21T03:13:36.125Z,-5.30
2019-01-21T03:17:01.810Z,-5.30
2019-01-21T03:20:29.084Z,-5.30
2019-01-21T03:23:58.720Z,-5.30
2019-01-21T03:27:17.778Z,-5.20
2019-01-21T03:30:55.964Z,-5.20
2019-01-21T03:34:11.115Z,-5.20
2019-01-21T03:37:42.764Z,-5.10
2019-01-21T03:40:54.584Z,-5.20
2019-01-21T03:44:06.942Z,-5.10
2019-01-21T03:47:20.183Z,-5.10
2019-01-21T03:50:50.468Z,-5.10
2019-01-21T03:53:47.314Z,-5.10
2019-01-21T03:57:00.948Z,-5.10
2019-01-21T04:00:10.319Z,-5.10
2019-01-21T04:03:27.219Z,-5.10
2019-01-21T04:06:45.379Z,-5.10
2019-01-21T04:10:20.350Z,-5.10
2019-01-21T04:13:52.052Z,-5.00
2019-01-21T04:17:13.129Z,-5.00
2019-01-21T04:20:34.432Z,-5.00
2019-01-21T04:24:30.261Z,-4.90
2019-01-21T04:27:45.672Z,-4.90
2019-01-21T04:31:29.492Z,-4.80
2019-01-21T04:34:52.532Z,-4.80
2019-01-21T04:38:33.530Z,-4.80
2019-01-21T04:41:58.479Z,-4.90
2019-01-21T04:45:30.304Z,-4.90
2019-01-21T04:49:06.118Z,-4.80
2019-01-21T04:52:25.528Z,-4.70
2019-01-21T04:55:56.111Z,-4.70
2019-01-21T04:59:34.288Z,-4.60
2019-01-21T05:02:42.017Z,-4.60
2019-01-21T05:05:48.445Z,-4.60
2019-01-21T05:09:11.167Z,-4.60
2019-01-21T05:12:26.526Z,-4.50
2019-01-21T05:15:46.772Z,-4.50
2019-01-21T05:19:18.639Z,-4.40
2019-01-21T05:22:26.615Z,-4.30
2019-01-21T05:25:43.728Z,-4.30
2019-01-21T05:29:08.894Z,-4.30
2019-01-21T05:32:31.339Z,-4.20
2019-01-21T05:35:54.888Z,-4.20
2019-01-21T05:39:16.890Z,-4.20
2019-01-21T05:42:47.361Z,-4.10
2019-01-21T05:45:53.638Z,-4.10
2019-01-21T05:49:16.958Z,-4.00
2019-01-21T05:52:38.940Z,-3.90
2019-01-21T05:55:48.007Z,-3.90
2019-01-21T05:59:18.453Z,-3.90
2019-01-21T06:02:45.426Z,-3.80
2019-01-21T06:05:59.026Z,-3.80
2019-01-21T06:09:41.174Z,-3.80
2019-01-21T06:13:12.977Z,-3.70
2019-01-21T06:16:59.960Z,-3.70
2019-01-21T06:20:40.825Z,-3.70
2019-01-21T06:23:58.358Z,-3.60
2019-01-21T06:27:14.194Z,-3.70
2019-01-21T06:30:37.897Z,-3.70
2019-01-21T06:34:20.018Z,-3.70
2019-01-21T06:37:26.546Z,-3.80
2019-01-21T06:40:55.896Z,-3.80
2019-01-21T06:43:53.644Z,-3.90
2019-01-21T06:47:17.009Z,-3.90
2019-01-21T06:50:48.948Z,-3.90
2019-01-21T06:54:14.579Z,-3.90
2019-01-21T06:57:19.474Z,-3.90
2019-01-21T07:00:17.012Z,-3.80
2019-01-21T07:03:48.501Z,-3.80
2019-01-21T07:06:54.966Z,-3.70
2019-01-21T07:10:03.586Z,-3.70
2019-01-21T07:13:19.672Z,-3.70
2019-01-21T07:16:49.376Z,-3.60
2019-01-21T07:19:56.897Z,-3.60
2019-01-21T07:23:43.822Z,-3.50
2019-01-21T07:27:22.057Z,-3.50
2019-01-21T07:30:49.841Z,-3.40
2019-01-21T07:34:30.516Z,-3.40
2019-01-21T07:37:57.850Z,-3.40
2019-01-21T07:41:26.206Z,-3.30
2019-01-21T07:44:39.629Z,-3.30
2019-01-21T07:48:11.137Z,-3.20
2019-01-21T07:51:29.195Z,-3.10
2019-01-21T07:54:35.458Z,-3.10
2019-01-21T07:57:36.095Z,-3.00
2019-01-21T08:00:36.804Z,-3.00
2019-01-21T08:03:37.947Z,-3.00
2019-01-21T08:06:38.746Z,-3.00
2019-01-21T08:09:39.358Z,-2.90
2019-01-21T08:15:26.177Z,-2.90
2019-01-21T08:18:25.212Z,-2.80
2019-01-21T08:21:26.199Z,-2.90
2019-01-21T08:24:27.289Z,-3.10
2019-01-21T08:27:27.729Z,-3.10
2019-01-21T08:30:28.795Z,-3.00
2019-01-21T08:33:56.181Z,-3.00
2019-01-21T08:37:23.697Z,-3.00
2019-01-21T08:40:50.975Z,-3.00
2019-01-21T08:43:52.221Z,-2.90
2019-01-21T08:46:52.706Z,-2.90
2019-01-21T08:54:01.824Z,-2.80
2019-01-21T08:57:29.277Z,-2.80
2019-01-21T09:00:56.804Z,-2.70
2019-01-21T09:04:24.112Z,-2.60
2019-01-21T09:07:51.415Z,-2.50
2019-01-21T09:11:18.731Z,-2.50
2019-01-21T09:14:34.083Z,-2.40
2019-01-21T09:18:01.376Z,-2.30
2019-01-21T09:21:28.720Z,-2.30
2019-01-21T09:24:56.156Z,-2.30
2019-01-21T09:28:23.449Z,-2.30
2019-01-21T09:31:50.736Z,-2.20
2019-01-21T09:35:18.072Z,-2.10
2019-01-21T09:41:53.118Z,-2.10
2019-01-21T09:45:03.296Z,-2.20
2019-01-21T09:48:10.874Z,-2.20
2019-01-21T09:51:19.658Z,-2.30
2019-01-21T09:54:28.596Z,-2.30
2019-01-21T09:57:57.329Z,-2.30
2019-01-21T10:01:06.220Z,-2.30
2019-01-21T10:08:09.201Z,-2.30
2019-01-21T10:11:36.651Z,-2.40
2019-01-21T10:15:03.994Z,-2.30
2019-01-21T10:18:16.721Z,-2.20
